Holly Hill, Florida
Current Conditions -  °F | °C
As of 10:53 PM on Thursday 20 Nov 2014 (Local Time) from KDAB Reporting Station
Broken Clouds Broken Clouds  
Wind Chill: 53°   Ceiling: 20000
Heat Index: 53°   Visibility: 10mi
Dew Point: 45°   Wind: 6mph
Humidity: 74%   Direction: 340°NNW
Pressure: 30.25"   Gusts: NA
Location:  29.25°N, 81.04°W
Report Text: KDAB 210353Z 34005KT 10SM BKN200 12/07 A3025 RMK AO2 SLP243 T01170072
Loading
Personal Weather Stations






























Interactive Weather Map New forecast layout! Learn more

10-Day Weather Forecast

Advertisements
Track Severe Weather on mobile